Time;durP1;ratioP1;P1;durP2;ratioP2;P2;SDS_P1;SDS_P2;PMS_P1;PMS_P2;Temp;Humidity;BMP_temperature;BMP_pressure;BME280_temperature;BME280_humidity;BME280_pressure;Samples;Min_cycle;Max_cycle;Signal;HPM_P1;HPM_P2
2022/03/02 00:00:45;;;;;;;1.17;0.70;;;3.10;99.30;;;;;;4960184;28;20035;-74
2022/03/02 00:03:12;;;;;;;2.22;0.80;;;3.10;99.30;;;;;;4959977;28;20382;-74
2022/03/02 00:05:38;;;;;;;0.95;0.75;;;3.10;99.30;;;;;;4960127;28;20438;-74
2022/03/02 00:08:05;;;;;;;1.13;0.80;;;3.10;99.50;;;;;;4959707;28;20027;-74
2022/03/02 00:10:31;;;;;;;1.67;0.85;;;3.00;99.70;;;;;;4959869;28;20027;-74
2022/03/02 00:12:57;;;;;;;2.78;0.80;;;3.10;99.80;;;;;;4959617;28;20115;-74
2022/03/02 00:15:23;;;;;;;1.45;0.80;;;3.00;99.70;;;;;;4959766;28;20098;-74
2022/03/02 00:17:49;;;;;;;0.60;0.60;;;3.10;99.90;;;;;;4959532;28;20078;-74
2022/03/02 00:20:15;;;;;;;0.65;0.65;;;3.10;99.90;;;;;;4959715;28;20028;-74
2022/03/02 00:22:40;;;;;;;2.70;0.70;;;3.00;99.90;;;;;;4957151;28;20039;-74
2022/03/02 00:25:07;;;;;;;1.95;0.95;;;3.00;99.90;;;;;;4956460;28;20039;-74
2022/03/02 00:27:33;;;;;;;1.25;0.65;;;3.00;99.90;;;;;;4956548;28;20023;-74
2022/03/02 00:30:00;;;;;;;0.90;0.60;;;3.10;99.90;;;;;;4956765;29;20086;-74
2022/03/02 00:32:25;;;;;;;2.42;0.90;;;3.00;99.90;;;;;;4956632;28;20027;-74
2022/03/02 00:34:51;;;;;;;1.77;0.80;;;3.00;99.90;;;;;;4956678;29;20530;-74
2022/03/02 00:37:17;;;;;;;2.00;0.90;;;3.00;99.90;;;;;;4956342;28;20479;-74
2022/03/02 00:39:44;;;;;;;3.33;0.70;;;3.00;99.90;;;;;;4956105;28;20047;-73
2022/03/02 00:42:10;;;;;;;1.40;0.80;;;3.00;99.90;;;;;;4955104;29;20086;-73
2022/03/02 00:44:36;;;;;;;0.77;0.70;;;3.00;99.90;;;;;;4956480;28;20028;-73
2022/03/02 00:47:03;;;;;;;4.72;0.80;;;3.10;99.90;;;;;;4956283;29;20034;-73
2022/03/02 00:49:31;;;;;;;2.95;1.05;;;3.00;99.90;;;;;;4956138;28;20024;-73
2022/03/02 00:51:59;;;;;;;1.65;0.90;;;3.00;99.90;;;;;;4956384;28;20039;-73
2022/03/02 00:54:25;;;;;;;3.40;1.02;;;3.00;99.90;;;;;;4956331;28;20024;-73
2022/03/02 00:56:51;;;;;;;2.92;0.77;;;3.00;99.90;;;;;;4955890;29;20471;-73
2022/03/02 00:59:17;;;;;;;2.40;0.80;;;3.00;99.90;;;;;;4956032;29;20110;-73
2022/03/02 01:01:42;;;;;;;5.35;0.90;;;3.00;99.90;;;;;;4955981;29;20467;-73
2022/03/02 01:04:08;;;;;;;5.60;1.08;;;3.00;99.90;;;;;;4956343;29;20039;-73
2022/03/02 01:06:35;;;;;;;1.77;0.80;;;3.00;99.90;;;;;;4954446;28;20122;-73
2022/03/02 01:09:01;;;;;;;4.68;1.20;;;3.00;99.90;;;;;;4955658;28;20027;-73
2022/03/02 01:11:26;;;;;;;2.97;1.00;;;3.00;99.90;;;;;;4956071;28;20035;-73
2022/03/02 01:13:52;;;;;;;4.95;0.98;;;3.00;99.90;;;;;;4955582;28;20086;-73
2022/03/02 01:16:18;;;;;;;3.95;1.27;;;3.10;99.90;;;;;;4955973;29;20066;-73
2022/03/02 01:18:44;;;;;;;2.13;0.80;;;3.10;99.90;;;;;;4955717;28;20023;-73
2022/03/02 01:21:10;;;;;;;1.92;0.82;;;3.10;99.90;;;;;;4955936;28;20066;-73
2022/03/02 01:23:36;;;;;;;2.13;0.68;;;3.10;99.90;;;;;;4955604;29;20451;-73
2022/03/02 01:26:02;;;;;;;5.03;1.17;;;3.00;99.90;;;;;;4955389;29;20118;-73
2022/03/02 01:28:28;;;;;;;3.03;1.30;;;3.00;99.90;;;;;;4955821;28;20126;-73
2022/03/02 01:30:53;;;;;;;1.23;0.85;;;3.00;99.90;;;;;;4955439;29;20031;-73
2022/03/02 01:33:19;;;;;;;2.65;0.90;;;3.00;99.90;;;;;;4955408;28;20031;-73
2022/03/02 01:35:45;;;;;;;5.07;0.90;;;3.00;99.90;;;;;;4955065;28;20023;-71
2022/03/02 01:38:11;;;;;;;2.97;0.80;;;3.00;99.90;;;;;;4955101;28;20074;-72
2022/03/02 01:40:36;;;;;;;4.28;0.90;;;3.00;99.90;;;;;;4955358;28;20102;-72
2022/03/02 01:43:02;;;;;;;4.25;0.88;;;3.10;99.90;;;;;;4955016;28;20028;-74
2022/03/02 01:45:28;;;;;;;1.52;0.75;;;3.00;99.90;;;;;;4955126;29;20042;-74
2022/03/02 01:47:58;;;;;;;5.22;1.55;;;3.00;99.90;;;;;;4955028;28;20039;-74
2022/03/02 01:50:24;;;;;;;2.45;1.15;;;3.00;99.90;;;;;;4955454;28;20015;-74
2022/03/02 01:52:49;;;;;;;1.77;0.80;;;3.00;99.90;;;;;;4953593;28;20034;-74
2022/03/02 01:55:16;;;;;;;6.13;1.17;;;3.00;99.90;;;;;;4954985;29;20081;-74
2022/03/02 01:57:42;;;;;;;2.95;0.93;;;3.00;99.90;;;;;;4954956;28;20027;-73
2022/03/02 02:00:11;;;;;;;2.90;1.00;;;3.10;99.90;;;;;;4954856;28;20027;-73
2022/03/02 02:02:37;;;;;;;4.15;0.80;;;3.10;99.90;;;;;;4954868;28;20119;-73
2022/03/02 02:05:04;;;;;;;3.97;0.93;;;3.10;99.90;;;;;;4954624;29;20471;-73
2022/03/02 02:07:30;;;;;;;2.88;0.82;;;3.10;99.90;;;;;;4954726;28;20490;-73
2022/03/02 02:09:59;;;;;;;2.10;0.90;;;3.10;99.90;;;;;;4954599;28;20023;-73
2022/03/02 02:12:25;;;;;;;2.63;0.95;;;3.10;99.90;;;;;;4954636;28;20487;-73
2022/03/02 02:14:51;;;;;;;3.22;1.20;;;3.10;99.90;;;;;;4954516;29;20065;-73
2022/03/02 02:17:17;;;;;;;4.70;1.08;;;3.10;99.90;;;;;;4954667;28;20106;-71
2022/03/02 02:19:43;;;;;;;2.78;0.80;;;3.10;99.90;;;;;;4954524;28;20086;-71
2022/03/02 02:22:09;;;;;;;6.10;1.35;;;3.20;99.90;;;;;;4954419;29;20031;-71
2022/03/02 02:56:23;;;;;;;3.80;0.90;;;3.00;99.90;;;;;;4953476;29;20047;-72
2022/03/02 02:58:48;;;;;;;5.35;1.30;;;3.00;99.90;;;;;;4954232;28;20498;-73
2022/03/02 03:01:14;;;;;;;3.72;1.00;;;3.00;99.90;;;;;;4954145;29;20038;-72
2022/03/02 03:37:20;;;;;;;4.15;1.17;;;2.90;99.90;;;;;;5720313;23;20110;-83
2022/03/02 03:39:46;;;;;;;3.85;1.15;;;2.90;99.90;;;;;;4972732;28;20109;-82
2022/03/02 03:42:12;;;;;;;6.70;1.00;;;2.90;99.90;;;;;;4973095;28;20115;-73
2022/03/02 03:44:38;;;;;;;2.55;0.90;;;2.90;99.90;;;;;;4973032;28;20573;-82
2022/03/02 03:47:04;;;;;;;4.75;0.77;;;2.90;99.90;;;;;;4971972;28;20870;-77
2022/03/02 03:49:30;;;;;;;1.42;0.80;;;2.80;99.90;;;;;;4954716;28;20027;-78
2022/03/02 03:51:56;;;;;;;2.35;1.00;;;2.90;99.90;;;;;;4953704;28;20493;-74
2022/03/02 03:54:22;;;;;;;2.28;0.95;;;2.90;99.90;;;;;;4953366;29;20497;-75
2022/03/02 03:56:48;;;;;;;5.32;1.00;;;2.90;99.90;;;;;;4954171;28;20030;-75
2022/03/02 03:59:14;;;;;;;3.97;1.05;;;2.90;99.90;;;;;;4957035;29;20035;-75
2022/03/02 04:01:39;;;;;;;3.08;1.05;;;2.90;99.90;;;;;;4957217;28;20491;-76
2022/03/02 04:04:05;;;;;;;3.80;1.08;;;2.90;99.90;;;;;;4955869;29;20027;-77
2022/03/02 04:06:31;;;;;;;2.00;1.05;;;2.90;99.90;;;;;;4956925;28;20051;-76
2022/03/02 04:08:57;;;;;;;6.18;1.45;;;2.80;99.90;;;;;;4956994;28;20030;-76
2022/03/02 04:11:23;;;;;;;6.57;0.98;;;2.90;99.90;;;;;;4956858;28;20027;-76
2022/03/02 04:13:49;;;;;;;6.15;1.10;;;2.90;99.90;;;;;;4956944;28;20027;-76
2022/03/02 04:16:15;;;;;;;2.40;0.93;;;2.90;99.90;;;;;;4956829;28;20096;-79
2022/03/02 04:18:40;;;;;;;7.45;1.30;;;2.90;99.90;;;;;;4956760;29;20030;-79
2022/03/02 04:21:06;;;;;;;8.52;1.25;;;2.90;99.90;;;;;;4956811;28;20446;-79
2022/03/02 04:23:32;;;;;;;4.07;1.33;;;2.90;99.90;;;;;;4956613;28;20058;-79
2022/03/02 04:25:58;;;;;;;6.50;1.38;;;2.90;99.90;;;;;;4956571;28;20039;-79
2022/03/02 04:28:24;;;;;;;4.15;1.10;;;2.90;99.90;;;;;;4956441;28;20050;-79
2022/03/02 04:30:49;;;;;;;5.43;1.30;;;2.90;99.90;;;;;;4956890;29;20031;-79
2022/03/02 04:33:16;;;;;;;4.60;1.17;;;2.90;99.90;;;;;;4956358;29;20019;-79
2022/03/02 04:35:42;;;;;;;6.82;1.13;;;2.80;99.90;;;;;;4956479;28;20034;-79
2022/03/02 04:38:10;;;;;;;5.47;1.00;;;2.80;99.90;;;;;;4956015;28;20043;-81
2022/03/02 04:40:36;;;;;;;9.18;1.17;;;2.90;99.90;;;;;;4956513;28;20156;-81
2022/03/02 04:43:02;;;;;;;2.72;1.10;;;2.80;99.90;;;;;;4956336;28;20431;-81
2022/03/02 04:45:28;;;;;;;3.90;1.48;;;2.90;99.90;;;;;;4956180;28;20070;-81
2022/03/02 04:47:55;;;;;;;7.57;1.33;;;2.80;99.90;;;;;;4956484;28;20490;-82
2022/03/02 04:50:22;;;;;;;6.57;1.58;;;2.80;99.90;;;;;;4956140;28;20034;-82
2022/03/02 04:52:52;;;;;;;6.20;1.38;;;2.80;99.90;;;;;;4956237;28;20023;-78
2022/03/02 04:55:18;;;;;;;6.47;1.33;;;2.90;99.90;;;;;;4956049;28;20514;-79
2022/03/02 04:57:52;;;;;;;3.90;1.30;;;2.90;99.90;;;;;;4956057;28;20031;-79
2022/03/02 05:00:21;;;;;;;5.95;1.30;;;2.90;99.90;;;;;;4955950;28;20035;-79
2022/03/02 05:02:47;;;;;;;10.57;1.45;;;2.90;99.90;;;;;;4956030;28;20028;-79
2022/03/02 05:05:15;;;;;;;6.50;1.40;;;2.90;99.90;;;;;;4955803;29;20114;-79
2022/03/02 05:07:42;;;;;;;7.97;1.48;;;2.90;99.90;;;;;;4955768;28;20023;-80
2022/03/02 05:10:09;;;;;;;5.00;1.90;;;2.90;99.90;;;;;;4955217;28;20023;-82
2022/03/02 05:12:35;;;;;;;5.18;1.38;;;2.90;99.90;;;;;;4955557;28;20033;-79
2022/03/02 05:15:02;;;;;;;8.30;1.40;;;2.90;99.90;;;;;;4955639;28;20098;-79
2022/03/02 05:17:29;;;;;;;9.02;1.50;;;2.80;99.90;;;;;;4955455;28;20075;-76
2022/03/02 05:19:54;;;;;;;10.88;1.38;;;2.80;99.90;;;;;;4955740;28;20398;-78
2022/03/02 05:22:20;;;;;;;5.45;1.70;;;2.80;99.90;;;;;;4955359;29;20078;-78
2022/03/02 05:24:46;;;;;;;5.80;1.40;;;2.80;99.90;;;;;;4955612;29;20035;-79
2022/03/02 05:27:12;;;;;;;7.82;1.50;;;2.90;99.90;;;;;;4955359;28;20027;-79
2022/03/02 05:29:37;;;;;;;6.63;1.35;;;2.80;99.90;;;;;;4955704;29;20042;-76
2022/03/02 05:32:04;;;;;;;4.82;1.58;;;2.90;99.90;;;;;;4955664;29;20031;-71
2022/03/02 05:34:30;;;;;;;6.90;1.50;;;2.80;99.90;;;;;;4955334;28;20479;-67
2022/03/02 05:36:56;;;;;;;7.45;1.60;;;2.90;99.90;;;;;;4953685;28;20076;-67
2022/03/02 05:39:25;;;;;;;8.18;1.10;;;2.90;99.90;;;;;;4955491;28;20529;-74
2022/03/02 05:41:51;;;;;;;6.20;1.30;;;3.30;99.90;;;;;;4953509;29;20466;-71
2022/03/02 05:44:17;;;;;;;6.03;1.38;;;4.20;99.90;;;;;;4955069;28;20027;-74
2022/03/02 05:46:44;;;;;;;9.15;1.75;;;3.90;99.60;;;;;;4954792;28;20047;-76
2022/03/02 05:49:10;;;;;;;8.77;1.73;;;3.60;99.90;;;;;;4954930;28;20020;-73
2022/03/02 05:51:36;;;;;;;6.13;1.40;;;3.40;99.90;;;;;;4955087;28;20073;-77
2022/03/02 05:54:04;;;;;;;6.18;1.38;;;3.30;99.90;;;;;;4954899;28;20027;-79
2022/03/02 05:56:33;;;;;;;6.30;1.40;;;3.20;99.90;;;;;;4954764;28;20034;-75
2022/03/02 05:58:59;;;;;;;7.00;1.48;;;3.10;99.90;;;;;;4954359;29;20050;-70
2022/03/02 06:01:25;;;;;;;5.20;1.67;;;3.10;99.90;;;;;;4953970;29;20380;-72
2022/03/02 06:03:51;;;;;;;4.00;1.30;;;3.00;99.90;;;;;;4954187;28;20099;-72
2022/03/02 06:06:17;;;;;;;4.50;1.00;;;3.00;99.90;;;;;;4954198;28;20367;-72
2022/03/02 06:08:43;;;;;;;11.13;1.95;;;2.90;99.90;;;;;;4953954;29;20027;-82
2022/03/02 06:11:09;;;;;;;5.57;1.60;;;2.90;99.90;;;;;;4954129;28;20505;-76
2022/03/02 06:13:36;;;;;;;4.85;1.60;;;2.90;99.90;;;;;;4952603;29;20027;-77
2022/03/02 06:16:02;;;;;;;9.02;1.40;;;2.90;99.90;;;;;;4954581;28;20036;-67
2022/03/02 06:18:29;;;;;;;5.72;1.65;;;2.90;99.90;;;;;;4954302;28;20024;-71
2022/03/02 06:21:05;;;;;;;5.45;1.60;;;2.80;99.90;;;;;;4952309;28;20050;-74
2022/03/02 06:23:31;;;;;;;5.55;1.30;;;3.00;99.90;;;;;;4953740;28;20033;-73
2022/03/02 06:25:58;;;;;;;8.02;1.45;;;2.90;99.90;;;;;;4954411;28;20475;-73
2022/03/02 06:28:25;;;;;;;10.50;1.90;;;2.90;99.90;;;;;;4954476;28;20086;-65
2022/03/02 06:30:52;;;;;;;7.75;1.50;;;2.90;99.90;;;;;;4954294;28;20090;-67
2022/03/02 06:33:20;;;;;;;15.02;1.88;;;3.00;99.90;;;;;;4954111;28;20414;-68
2022/03/02 06:35:47;;;;;;;13.77;2.13;;;3.00;99.90;;;;;;4954260;28;20027;-67
2022/03/02 06:38:13;;;;;;;11.02;1.63;;;3.00;99.90;;;;;;4954026;28;20507;-67
2022/03/02 06:41:02;;;;;;;6.93;1.52;;;3.00;99.90;;;;;;4954444;28;20081;-66
2022/03/02 06:43:51;;;;;;;7.55;1.33;;;3.00;99.90;;;;;;4954356;28;20055;-67
2022/03/02 06:46:30;;;;;;;9.48;1.67;;;3.00;99.90;;;;;;4954084;28;20031;-67
2022/03/02 06:49:03;;;;;;;11.43;1.95;;;3.00;99.90;;;;;;4954431;28;20364;-67
2022/03/02 06:51:30;;;;;;;12.65;1.83;;;3.00;99.90;;;;;;4954191;28;20081;-67
2022/03/02 06:53:58;;;;;;;8.38;1.98;;;3.00;99.90;;;;;;4954355;28;20522;-67
2022/03/02 06:56:29;;;;;;;11.90;1.60;;;3.00;99.90;;;;;;4953953;28;20070;-67
2022/03/02 06:58:57;;;;;;;11.35;2.42;;;3.10;99.90;;;;;;4954098;28;20036;-67
2022/03/02 07:01:31;;;;;;;12.40;1.77;;;3.20;99.90;;;;;;4953246;28;20039;-75
2022/03/02 07:03:59;;;;;;;7.85;1.80;;;3.30;99.90;;;;;;4953905;28;20034;-73
2022/03/02 07:06:26;;;;;;;8.65;1.45;;;3.20;99.90;;;;;;4953594;28;20039;-73
2022/03/02 07:08:54;;;;;;;6.45;1.60;;;3.20;99.90;;;;;;4953608;28;20038;-73
2022/03/02 07:11:21;;;;;;;11.75;1.50;;;3.20;99.90;;;;;;4953705;28;20615;-73
2022/03/02 07:13:49;;;;;;;6.72;1.65;;;3.20;99.90;;;;;;4953749;28;20067;-73
2022/03/02 07:16:17;;;;;;;9.23;1.40;;;3.20;99.90;;;;;;4953691;28;20418;-72
2022/03/02 07:18:43;;;;;;;5.40;1.42;;;3.20;99.90;;;;;;4953648;28;20054;-79
2022/03/02 07:21:14;;;;;;;12.75;3.35;;;3.20;99.90;;;;;;4953862;28;20035;-70
2022/03/02 07:23:46;;;;;;;54.28;23.33;;;3.20;99.90;;;;;;4953660;28;20023;-75
2022/03/02 07:26:17;;;;;;;515.83;229.05;;;3.30;99.90;;;;;;4953784;28;20454;-73
2022/03/02 07:28:46;;;;;;;91.47;43.38;;;3.30;99.90;;;;;;4939280;28;20038;-75
2022/03/02 07:31:12;;;;;;;83.23;38.13;;;3.40;99.90;;;;;;4951147;28;20031;-75
2022/03/02 07:33:42;;;;;;;59.72;27.10;;;3.40;99.90;;;;;;4956793;28;20439;-77
2022/03/02 07:36:11;;;;;;;17.17;7.78;;;3.50;99.90;;;;;;4956152;29;20023;-76
2022/03/02 07:38:38;;;;;;;13.40;3.17;;;3.60;99.90;;;;;;4957003;28;20047;-77
2022/03/02 07:41:08;;;;;;;6.28;2.10;;;3.70;99.90;;;;;;4956931;28;20043;-70
2022/03/02 07:43:36;;;;;;;7.15;1.50;;;3.70;99.90;;;;;;4957149;28;20059;-75
2022/03/02 07:46:09;;;;;;;7.97;1.92;;;3.80;99.90;;;;;;4957403;28;20035;-75
2022/03/02 07:48:36;;;;;;;6.47;1.65;;;3.90;99.90;;;;;;4957197;28;20138;-77
2022/03/02 07:51:03;;;;;;;8.85;1.90;;;4.00;99.90;;;;;;4957277;28;20114;-77
2022/03/02 07:53:37;;;;;;;10.43;1.90;;;4.00;99.90;;;;;;4957296;28;20023;-73
2022/03/02 07:56:04;;;;;;;11.48;2.03;;;4.00;99.90;;;;;;4957360;28;20031;-73
2022/03/02 07:58:30;;;;;;;7.25;1.52;;;4.10;99.90;;;;;;4956425;28;20372;-75
2022/03/02 08:00:58;;;;;;;8.88;1.60;;;4.10;99.90;;;;;;4956656;29;20024;-73
2022/03/02 08:03:27;;;;;;;7.43;1.70;;;4.10;99.90;;;;;;4949590;29;20066;-75
2022/03/02 08:05:58;;;;;;;8.70;1.45;;;4.10;99.90;;;;;;4955711;29;20126;-74
2022/03/02 08:08:24;;;;;;;21.42;7.65;;;4.00;99.90;;;;;;4956542;28;20027;-72
2022/03/02 08:10:55;;;;;;;22.13;11.07;;;4.00;99.90;;;;;;4957096;29;20039;-72
2022/03/02 08:13:22;;;;;;;24.20;10.32;;;4.00;99.90;;;;;;4955864;28;20023;-76
2022/03/02 08:15:48;;;;;;;8.60;3.33;;;4.10;99.90;;;;;;4956699;28;20538;-75
2022/03/02 08:18:14;;;;;;;7.32;2.05;;;4.10;99.90;;;;;;4956860;28;20220;-75
2022/03/02 08:20:49;;;;;;;5.95;1.60;;;4.10;99.90;;;;;;4955456;29;20035;-76
2022/03/02 08:23:17;;;;;;;7.85;1.80;;;4.10;99.90;;;;;;4956744;28;20041;-72
2022/03/02 08:25:44;;;;;;;5.72;1.67;;;4.10;99.90;;;;;;4956504;28;20062;-72
2022/03/02 08:28:10;;;;;;;3.20;1.45;;;4.10;99.90;;;;;;4955395;29;20039;-72
2022/03/02 08:30:38;;;;;;;5.35;1.40;;;4.10;99.90;;;;;;4956524;28;20400;-72
2022/03/02 08:33:06;;;;;;;5.57;1.40;;;4.10;99.90;;;;;;4937440;29;20028;-67
2022/03/02 08:35:37;;;;;;;7.30;1.65;;;4.10;99.90;;;;;;4936833;29;20031;-67
2022/03/02 08:38:03;;;;;;;8.88;1.40;;;4.10;99.90;;;;;;4935790;29;20060;-71
2022/03/02 08:40:29;;;;;;;4.50;1.25;;;4.10;99.90;;;;;;4937104;29;20031;-70
2022/03/02 08:43:00;;;;;;;2.70;1.17;;;5.00;99.90;;;;;;4937443;29;20032;-73
2022/03/02 08:45:27;;;;;;;5.65;1.25;;;6.40;99.90;;;;;;4936715;29;20031;-79
2022/03/02 08:47:54;;;;;;;6.45;1.10;;;6.80;98.30;;;;;;4937677;29;20115;-77
2022/03/02 08:50:19;;;;;;;6.70;1.33;;;6.10;96.00;;;;;;4937027;29;20030;-77
2022/03/02 08:52:47;;;;;;;5.25;1.35;;;5.50;97.60;;;;;;4936838;29;20027;-77
2022/03/02 08:55:12;;;;;;;7.20;1.35;;;5.20;99.80;;;;;;4937245;29;20067;-77
2022/03/02 08:57:43;;;;;;;5.05;1.08;;;5.00;99.90;;;;;;4936769;29;20027;-77
2022/03/02 09:00:11;;;;;;;7.03;1.63;;;4.90;99.90;;;;;;4936759;29;20491;-77
2022/03/02 09:02:37;;;;;;;3.72;1.20;;;4.80;99.90;;;;;;4935488;29;20499;-77
2022/03/02 09:05:05;;;;;;;5.97;1.33;;;4.80;99.90;;;;;;4937723;29;20027;-78
2022/03/02 09:07:31;;;;;;;4.13;1.17;;;4.80;99.90;;;;;;4936685;29;20059;-77
2022/03/02 09:09:58;;;;;;;2.70;1.10;;;4.80;99.90;;;;;;4936591;29;20019;-77
2022/03/02 09:12:24;;;;;;;5.28;1.13;;;4.90;99.90;;;;;;4936626;29;20027;-76
2022/03/02 09:14:51;;;;;;;5.78;1.27;;;4.90;99.90;;;;;;4936511;29;20019;-77
2022/03/02 09:17:18;;;;;;;4.97;1.08;;;4.90;99.90;;;;;;4936834;29;20040;-77
2022/03/02 09:19:45;;;;;;;5.88;1.20;;;4.90;99.90;;;;;;4936292;29;20024;-77
2022/03/02 09:22:11;;;;;;;5.95;1.58;;;4.90;99.90;;;;;;4936765;29;20032;-77
2022/03/02 09:24:38;;;;;;;7.72;1.30;;;4.80;99.90;;;;;;4936182;29;20075;-77
2022/03/02 09:27:08;;;;;;;3.80;1.13;;;4.80;99.90;;;;;;4936302;29;20036;-77
2022/03/02 09:29:36;;;;;;;4.85;1.10;;;4.80;99.90;;;;;;4936152;29;20030;-77
2022/03/02 09:32:03;;;;;;;7.68;1.25;;;4.80;99.90;;;;;;4936581;29;20040;-77
2022/03/02 09:34:30;;;;;;;2.72;0.90;;;4.80;99.90;;;;;;4936008;29;20057;-77
2022/03/02 09:36:57;;;;;;;4.55;1.10;;;4.80;99.90;;;;;;4936006;29;20475;-77
2022/03/02 09:39:24;;;;;;;3.83;1.00;;;4.80;99.90;;;;;;4936216;29;20047;-77
2022/03/02 09:41:54;;;;;;;4.43;1.48;;;4.80;99.90;;;;;;4936078;29;20028;-77
2022/03/02 09:44:25;;;;;;;4.65;1.08;;;4.80;99.90;;;;;;4936041;29;20031;-77
2022/03/02 09:46:56;;;;;;;8.07;1.67;;;4.80;99.90;;;;;;4936224;29;20444;-77
2022/03/02 09:49:24;;;;;;;4.45;1.17;;;4.80;99.90;;;;;;4936002;29;20111;-77
2022/03/02 09:52:05;;;;;;;3.38;0.90;;;4.70;99.90;;;;;;4936187;29;20082;-77
2022/03/02 09:54:36;;;;;;;4.97;0.93;;;4.70;99.90;;;;;;4935569;29;20431;-76
2022/03/02 09:57:07;;;;;;;4.32;1.20;;;4.80;99.90;;;;;;4935881;29;20050;-78
2022/03/02 09:59:38;;;;;;;4.05;1.13;;;4.80;99.90;;;;;;4934860;29;20420;-77
2022/03/02 10:02:08;;;;;;;5.35;1.10;;;4.80;99.90;;;;;;4934564;29;20110;-78
2022/03/02 10:04:35;;;;;;;4.35;1.15;;;4.80;99.90;;;;;;4935744;29;20379;-78
2022/03/02 10:10:17;;;;;;;3.50;1.17;;;4.80;99.90;;;;;;4935429;29;20031;-77
2022/03/02 10:12:43;;;;;;;5.18;1.50;;;4.80;99.90;;;;;;4935456;29;20476;-77
2022/03/02 10:15:13;;;;;;;2.67;0.88;;;4.80;99.90;;;;;;4935518;29;20035;-77
2022/03/02 10:17:42;;;;;;;3.58;1.10;;;4.80;99.90;;;;;;4933931;29;20067;-77
2022/03/02 10:20:17;;;;;;;5.80;1.10;;;4.80;99.90;;;;;;4935214;29;20106;-80
2022/03/02 10:22:46;;;;;;;3.78;0.85;;;4.90;99.90;;;;;;4935290;29;20027;-73
2022/03/02 10:25:15;;;;;;;3.10;0.98;;;5.00;99.90;;;;;;4936482;29;20488;-73
2022/03/02 10:28:04;;;;;;;3.88;1.00;;;5.00;99.90;;;;;;4935244;29;20395;-73
2022/03/02 10:30:38;;;;;;;2.42;0.63;;;5.00;99.90;;;;;;4938437;29;20019;-74
2022/03/02 10:33:24;;;;;;;3.20;1.00;;;5.00;99.90;;;;;;4954270;28;20039;-74
2022/03/02 10:36:10;;;;;;;5.15;1.30;;;5.10;99.90;;;;;;4954027;28;20115;-73
2022/03/02 10:38:38;;;;;;;6.30;1.00;;;5.10;99.90;;;;;;4953445;28;20057;-74
2022/03/02 10:41:08;;;;;;;3.95;1.25;;;5.30;99.90;;;;;;4954236;29;20026;-74
2022/03/02 10:44:00;;;;;;;4.97;1.10;;;5.70;99.90;;;;;;4954013;28;20039;-72
2022/03/02 10:46:26;;;;;;;2.25;0.98;;;5.90;99.90;;;;;;4945435;29;20086;-77
2022/03/02 10:49:05;;;;;;;2.10;0.68;;;5.80;99.90;;;;;;4953957;28;20034;-77
2022/03/02 10:51:34;;;;;;;3.70;1.10;;;5.70;99.90;;;;;;4954001;28;20090;-77
2022/03/02 10:54:05;;;;;;;2.28;0.88;;;5.60;99.90;;;;;;4953985;28;20019;-77
2022/03/02 10:56:39;;;;;;;4.72;0.88;;;5.60;99.90;;;;;;4953856;28;20027;-76
2022/03/02 10:59:08;;;;;;;4.72;0.80;;;5.50;99.90;;;;;;4953469;28;20035;-76
2022/03/02 11:01:35;;;;;;;3.83;1.23;;;5.50;99.90;;;;;;4953343;28;20038;-75
2022/03/02 11:04:02;;;;;;;1.70;0.80;;;5.50;99.90;;;;;;4952007;29;20387;-74
2022/03/02 11:06:29;;;;;;;2.25;0.75;;;5.50;99.90;;;;;;4952064;28;20035;-81
2022/03/02 11:08:55;;;;;;;2.58;0.90;;;5.50;99.90;;;;;;4949040;28;20031;-78
2022/03/02 11:11:24;;;;;;;1.95;0.68;;;5.50;99.90;;;;;;4968986;28;20033;-73
2022/03/02 11:13:51;;;;;;;5.13;0.88;;;5.60;99.90;;;;;;4953025;28;20023;-77
2022/03/02 11:16:22;;;;;;;1.40;0.60;;;5.60;99.90;;;;;;4952786;28;20058;-74
2022/03/02 11:18:50;;;;;;;0.90;0.63;;;5.60;99.90;;;;;;4943154;28;20035;-72
2022/03/02 11:21:29;;;;;;;1.95;0.93;;;5.60;99.90;;;;;;4937997;29;20039;-72
2022/03/02 11:23:59;;;;;;;1.50;0.70;;;5.60;99.90;;;;;;4936961;29;20031;-74
2022/03/02 11:26:34;;;;;;;1.60;0.65;;;5.70;99.90;;;;;;4936914;29;20295;-73
2022/03/02 11:29:03;;;;;;;0.75;0.75;;;5.70;99.90;;;;;;4937352;28;20031;-73
2022/03/02 11:31:31;;;;;;;2.50;0.80;;;5.70;99.90;;;;;;4938906;28;20034;-72
2022/03/02 11:34:30;;;;;;;2.60;0.70;;;5.70;99.90;;;;;;4934132;29;20376;-71
2022/03/02 11:37:04;;;;;;;2.08;0.70;;;5.70;99.90;;;;;;4935120;29;20050;-73
2022/03/02 11:39:32;;;;;;;1.67;0.70;;;5.80;99.90;;;;;;4939362;29;20034;-71
2022/03/02 11:42:02;;;;;;;2.53;0.77;;;5.80;99.90;;;;;;4947378;28;20090;-68
2022/03/02 11:44:39;;;;;;;2.63;1.13;;;5.90;99.90;;;;;;4952654;28;20048;-71
2022/03/02 11:47:07;;;;;;;2.38;0.65;;;5.90;99.90;;;;;;4950613;28;20122;-70
2022/03/02 11:49:51;;;;;;;0.88;0.70;;;5.90;99.90;;;;;;4950755;28;20020;-70
2022/03/02 11:52:27;;;;;;;2.70;0.95;;;5.90;99.90;;;;;;4948896;29;20051;-69
2022/03/02 11:55:13;;;;;;;1.05;0.50;;;5.90;99.90;;;;;;4951851;28;20027;-77
2022/03/02 11:57:48;;;;;;;0.57;0.52;;;6.00;99.90;;;;;;4952229;28;20027;-75
2022/03/02 12:00:19;;;;;;;1.55;0.50;;;6.00;99.90;;;;;;4934188;29;20032;-73
2022/03/02 12:02:49;;;;;;;0.88;0.52;;;6.10;99.90;;;;;;4941709;29;20042;-75
2022/03/02 12:05:17;;;;;;;1.07;0.70;;;6.10;99.90;;;;;;4952185;28;20054;-70
2022/03/02 12:07:52;;;;;;;2.15;0.52;;;6.30;99.90;;;;;;4952018;29;20575;-72
2022/03/02 12:10:20;;;;;;;1.75;0.50;;;7.10;99.90;;;;;;4953037;28;20114;-72
2022/03/02 12:12:46;;;;;;;0.50;0.50;;;7.10;99.90;;;;;;4950985;28;20027;-72
2022/03/02 12:15:12;;;;;;;0.40;0.40;;;6.90;99.90;;;;;;4940264;29;20035;-71
2022/03/02 12:17:38;;;;;;;1.17;0.50;;;6.80;99.90;;;;;;4953080;28;20031;-66
2022/03/02 12:20:07;;;;;;;2.03;0.50;;;6.90;99.90;;;;;;4956212;28;20032;-66
2022/03/02 12:22:36;;;;;;;1.60;0.60;;;7.40;99.90;;;;;;4955996;28;20031;-75
2022/03/02 12:25:03;;;;;;;0.47;0.47;;;7.50;99.90;;;;;;4956621;28;20031;-75
2022/03/02 12:27:29;;;;;;;0.60;0.47;;;7.40;99.60;;;;;;4956561;28;20035;-75
2022/03/02 12:29:59;;;;;;;0.80;0.40;;;7.30;99.20;;;;;;4956470;28;20023;-72
2022/03/02 12:32:30;;;;;;;1.20;0.40;;;7.20;98.60;;;;;;4956846;28;20246;-74
2022/03/02 12:34:57;;;;;;;0.55;0.35;;;7.10;98.70;;;;;;4956317;28;20038;-74
2022/03/02 12:37:24;;;;;;;0.85;0.43;;;7.10;98.50;;;;;;4956140;28;20047;-74
2022/03/02 12:39:51;;;;;;;1.55;0.70;;;7.10;99.00;;;;;;4956137;28;20024;-76
2022/03/02 12:42:17;;;;;;;0.40;0.40;;;7.10;98.70;;;;;;4956379;28;20037;-76
2022/03/02 12:44:49;;;;;;;1.00;0.63;;;7.10;98.40;;;;;;4955802;28;20058;-77
2022/03/02 12:47:19;;;;;;;1.75;0.55;;;7.10;98.90;;;;;;4956480;28;20043;-77
2022/03/02 12:49:47;;;;;;;0.63;0.50;;;7.10;98.20;;;;;;4954762;29;20502;-77
2022/03/02 12:52:14;;;;;;;2.35;0.50;;;7.00;98.20;;;;;;4956387;28;20031;-77
2022/03/02 12:54:41;;;;;;;1.83;0.50;;;7.00;98.40;;;;;;4955891;28;20043;-77
2022/03/02 12:57:13;;;;;;;2.72;0.57;;;7.00;98.50;;;;;;4956043;28;20031;-77
2022/03/02 12:59:43;;;;;;;0.40;0.40;;;7.00;98.50;;;;;;4955835;28;20378;-77
2022/03/02 13:02:22;;;;;;;1.35;0.70;;;7.00;98.80;;;;;;4956017;28;20023;-77
2022/03/02 13:05:17;;;;;;;0.40;0.40;;;7.00;98.60;;;;;;4956075;28;20262;-77
2022/03/02 13:07:57;;;;;;;0.70;0.50;;;7.00;98.10;;;;;;4943185;28;20047;-77
2022/03/02 13:10:25;;;;;;;0.68;0.50;;;7.00;98.30;;;;;;4955709;29;20391;-77
2022/03/02 13:12:56;;;;;;;0.85;0.50;;;7.00;98.20;;;;;;4955572;28;20110;-77
2022/03/02 13:15:31;;;;;;;2.58;0.40;;;7.00;98.00;;;;;;4955635;28;20030;-77
2022/03/02 13:18:09;;;;;;;0.30;0.30;;;7.00;97.80;;;;;;4955648;29;20030;-77
2022/03/02 13:20:45;;;;;;;1.52;0.40;;;7.00;97.70;;;;;;4955635;28;20114;-77
2022/03/02 13:23:38;;;;;;;0.43;0.40;;;7.00;97.50;;;;;;4956006;28;20558;-77
2022/03/02 13:26:03;;;;;;;0.40;0.40;;;7.00;97.20;;;;;;4952454;29;20047;-77
2022/03/02 13:28:31;;;;;;;1.08;0.60;;;7.00;96.90;;;;;;4955468;28;20098;-77
2022/03/02 13:31:08;;;;;;;0.43;0.40;;;7.00;97.20;;;;;;4954824;28;20066;-77
2022/03/02 13:34:02;;;;;;;0.82;0.40;;;7.00;97.00;;;;;;4955451;28;20066;-77
2022/03/02 13:36:54;;;;;;;0.40;0.40;;;7.00;96.40;;;;;;4955270;28;20042;-77
2022/03/02 13:39:22;;;;;;;0.88;0.40;;;7.00;96.20;;;;;;4955297;28;20043;-77
2022/03/02 13:42:04;;;;;;;0.50;0.43;;;7.00;96.20;;;;;;4955261;28;20019;-77
2022/03/02 13:44:38;;;;;;;0.95;0.40;;;7.00;95.40;;;;;;4955258;28;20023;-77
2022/03/02 13:47:11;;;;;;;2.13;0.60;;;7.00;95.10;;;;;;4955185;28;20114;-77
2022/03/02 13:49:54;;;;;;;1.75;0.40;;;7.00;95.30;;;;;;4955080;28;20046;-77
2022/03/02 13:52:28;;;;;;;1.40;0.50;;;7.00;94.90;;;;;;4955104;29;20061;-77
2022/03/02 13:55:03;;;;;;;0.82;0.40;;;7.00;95.00;;;;;;4954876;29;20062;-77
2022/03/02 13:57:32;;;;;;;0.50;0.40;;;7.00;94.80;;;;;;4953765;29;20027;-77
2022/03/02 14:00:19;;;;;;;0.30;0.30;;;7.10;94.70;;;;;;4954728;28;20126;-77
2022/03/02 14:02:51;;;;;;;0.30;0.30;;;7.10;94.60;;;;;;4954765;29;20031;-77
2022/03/02 14:05:19;;;;;;;0.55;0.40;;;7.10;94.30;;;;;;4954806;28;20082;-77
2022/03/02 14:07:45;;;;;;;0.57;0.38;;;7.10;94.10;;;;;;4954663;28;20082;-77
2022/03/02 14:10:16;;;;;;;0.77;0.77;;;7.10;94.00;;;;;;4954871;28;20030;-77
2022/03/02 14:12:51;;;;;;;1.85;0.63;;;7.10;93.60;;;;;;4954618;28;20410;-77